Time,TemperatureF,DewpointF,PressureIn,WindDirection,WindDirectionDegrees,WindSpeedMPH,WindSpeedGustMPH,Humidity,HourlyPrecipIn,Conditions,Clouds,dailyrainin,SoftwareType,DateUTC
2013-10-27 00:11:00,51.8,39.2,29.85,WSW,247,1.6,-999.0,62,-99.99,,,0.00,Acu-Link.com,2013-10-27 04:11:00,
2013-10-27 00:26:00,51.8,40.0,29.85,North,0,2.0,-999.0,64,-99.99,,,0.00,Acu-Link.com,2013-10-27 04:26:00,
2013-10-27 00:42:00,51.8,39.6,29.85,NE,45,2.0,-999.0,63,-99.99,,,0.00,Acu-Link.com,2013-10-27 04:42:00,
2013-10-27 00:57:00,51.8,40.0,29.84,SW,225,1.6,-999.0,64,-99.99,,,0.00,Acu-Link.com,2013-10-27 04:57:00,
2013-10-27 01:12:00,51.8,40.0,29.85,WSW,247,1.1,-999.0,64,-99.99,,,0.00,Acu-Link.com,2013-10-27 05:12:00,
2013-10-27 01:27:00,51.8,38.8,29.85,West,270,2.0,-999.0,61,-99.99,,,0.00,Acu-Link.com,2013-10-27 05:27:00,
2013-10-27 01:43:00,51.8,38.4,29.86,NNW,337,0.0,-999.0,60,-99.99,,,0.00,Acu-Link.com,2013-10-27 05:43:00,
2013-10-27 01:58:00,50.0,36.7,29.86,NW,315,0.0,-999.0,60,-99.99,,,0.00,Acu-Link.com,2013-10-27 05:58:00,
2013-10-27 02:13:00,50.0,37.1,29.86,NW,315,0.0,-999.0,61,-99.99,,,0.00,Acu-Link.com,2013-10-27 06:13:00,
2013-10-27 02:28:00,50.0,37.1,29.86,ESE,112,0.0,-999.0,61,-99.99,,,0.00,Acu-Link.com,2013-10-27 06:28:00,
2013-10-27 02:44:00,50.0,37.1,29.86,SW,225,0.0,-999.0,61,-99.99,,,0.00,Acu-Link.com,2013-10-27 06:44:00,
2013-10-27 02:59:00,50.0,37.5,29.86,WNW,292,0.0,-999.0,62,-99.99,,,0.00,Acu-Link.com,2013-10-27 06:59:00,
2013-10-27 03:14:00,50.0,37.9,29.85,West,270,0.0,-999.0,63,-99.99,,,0.00,Acu-Link.com,2013-10-27 07:14:00,
2013-10-27 03:29:00,50.0,38.7,29.86,SSW,202,0.0,-999.0,65,-99.99,,,0.00,Acu-Link.com,2013-10-27 07:29:00,
2013-10-27 03:44:00,50.0,37.9,29.86,WSW,247,0.0,-999.0,63,-99.99,,,0.00,Acu-Link.com,2013-10-27 07:44:00,
2013-10-27 04:00:00,50.0,38.3,29.85,WSW,247,0.0,-999.0,64,-99.99,,,0.00,Acu-Link.com,2013-10-27 08:00:00,
2013-10-27 04:16:00,50.0,38.7,29.85,WSW,247,0.0,-999.0,65,-99.99,,,0.00,Acu-Link.com,2013-10-27 08:16:00,
2013-10-27 04:31:00,50.0,38.7,29.84,WSW,247,0.0,-999.0,65,-99.99,,,0.00,Acu-Link.com,2013-10-27 08:31:00,
2013-10-27 04:46:00,48.2,37.8,29.84,North,0,0.0,-999.0,67,-99.99,,,0.00,Acu-Link.com,2013-10-27 08:46:00,
2013-10-27 05:01:00,46.4,36.4,29.84,North,0,0.0,-999.0,68,-99.99,,,0.00,Acu-Link.com,2013-10-27 09:01:00,
2013-10-27 05:16:00,46.4,37.9,29.83,North,0,0.0,-999.0,72,-99.99,,,0.00,Acu-Link.com,2013-10-27 09:16:00,
2013-10-27 05:32:00,44.6,37.2,29.82,WSW,247,0.0,-999.0,75,-99.99,,,0.00,Acu-Link.com,2013-10-27 09:32:00,
2013-10-27 05:47:00,44.6,38.2,29.82,ESE,112,0.0,-999.0,78,-99.99,,,0.00,Acu-Link.com,2013-10-27 09:47:00,
2013-10-27 06:02:00,42.8,37.1,29.82,SSE,157,0.0,-999.0,80,-99.99,,,0.00,Acu-Link.com,2013-10-27 10:02:00,
2013-10-27 06:17:00,41.0,38.0,29.84,ESE,112,0.0,-999.0,89,-99.99,,,0.00,Acu-Link.com,2013-10-27 10:17:00,
2013-10-27 06:32:00,41.0,38.3,29.84,NE,45,0.0,-999.0,90,-99.99,,,0.00,Acu-Link.com,2013-10-27 10:32:00,
2013-10-27 06:47:00,41.0,39.7,29.85,SSE,157,0.0,-999.0,95,-99.99,,,0.00,Acu-Link.com,2013-10-27 10:47:00,
2013-10-27 07:03:00,39.2,38.4,29.85,NE,45,0.0,-999.0,97,-99.99,,,0.00,Acu-Link.com,2013-10-27 11:03:00,
2013-10-27 07:18:00,39.2,38.7,29.85,ENE,67,0.0,-999.0,98,-99.99,,,0.00,Acu-Link.com,2013-10-27 11:18:00,
2013-10-27 07:33:00,39.2,38.9,29.85,NE,45,0.0,-999.0,99,-99.99,,,0.00,Acu-Link.com,2013-10-27 11:33:00,
2013-10-27 07:48:00,39.2,38.9,29.86,SSE,157,0.0,-999.0,99,-99.99,,,0.00,Acu-Link.com,2013-10-27 11:48:00,
2013-10-27 08:03:00,39.2,38.9,29.86,ESE,112,0.0,-999.0,99,-99.99,,,0.00,Acu-Link.com,2013-10-27 12:03:00,
2013-10-27 08:18:00,39.2,38.9,29.87,East,90,0.0,-999.0,99,-99.99,,,0.00,Acu-Link.com,2013-10-27 12:18:00,
2013-10-27 08:33:00,41.0,40.7,29.88,East,90,0.0,-999.0,99,-99.99,,,0.00,Acu-Link.com,2013-10-27 12:33:00,
2013-10-27 08:48:00,41.0,40.7,29.89,East,90,0.0,-999.0,99,-99.99,,,0.00,Acu-Link.com,2013-10-27 12:48:00,
2013-10-27 09:04:00,44.6,44.3,29.89,East,90,0.0,-999.0,99,-99.99,,,0.00,Acu-Link.com,2013-10-27 13:04:00,
2013-10-27 09:19:00,44.6,43.8,29.89,East,90,0.0,-999.0,97,-99.99,,,0.00,Acu-Link.com,2013-10-27 13:19:00,
2013-10-27 09:34:00,48.2,44.8,29.90,NNE,22,0.0,-999.0,88,-99.99,,,0.00,Acu-Link.com,2013-10-27 13:34:00,
2013-10-27 09:49:00,51.8,43.4,29.90,NNE,22,0.0,-999.0,73,-99.99,,,0.00,Acu-Link.com,2013-10-27 13:49:00,
2013-10-27 10:04:00,55.4,42.6,29.90,ESE,112,0.0,-999.0,62,-99.99,,,0.00,Acu-Link.com,2013-10-27 14:04:00,
2013-10-27 10:20:00,59.0,44.2,29.90,South,180,2.7,-999.0,58,-99.99,,,0.00,Acu-Link.com,2013-10-27 14:20:00,
2013-10-27 10:35:00,59.0,41.4,29.91,SSW,202,3.1,-999.0,52,-99.99,,,0.00,Acu-Link.com,2013-10-27 14:35:00,
2013-10-27 10:50:00,60.8,42.6,29.90,South,180,3.1,-999.0,51,-99.99,,,0.00,Acu-Link.com,2013-10-27 14:50:00,
2013-10-27 11:05:00,62.6,41.0,29.90,NW,315,1.6,-999.0,45,-99.99,,,0.00,Acu-Link.com,2013-10-27 15:05:00,
2013-10-27 11:20:00,60.8,39.9,29.90,SSE,157,2.7,-999.0,46,-99.99,,,0.00,Acu-Link.com,2013-10-27 15:20:00,
2013-10-27 11:35:00,62.6,41.0,29.90,ESE,112,1.6,-999.0,45,-99.99,,,0.00,Acu-Link.com,2013-10-27 15:35:00,
2013-10-27 11:50:00,62.6,41.0,29.91,SE,135,3.6,-999.0,45,-99.99,,,0.00,Acu-Link.com,2013-10-27 15:50:00,
2013-10-27 12:05:00,62.6,39.8,29.90,North,0,2.0,-999.0,43,-99.99,,,0.00,Acu-Link.com,2013-10-27 16:05:00,
2013-10-27 12:20:00,62.6,40.4,29.91,South,180,4.0,-999.0,44,-99.99,,,0.00,Acu-Link.com,2013-10-27 16:20:00,
2013-10-27 12:36:00,62.6,42.1,29.90,SSE,157,4.7,-999.0,47,-99.99,,,0.00,Acu-Link.com,2013-10-27 16:36:00,
2013-10-27 12:51:00,64.4,44.3,29.90,South,180,4.7,-999.0,48,-99.99,,,0.00,Acu-Link.com,2013-10-27 16:51:00,
2013-10-27 13:06:00,62.6,43.2,29.89,SE,135,4.0,-999.0,49,-99.99,,,0.00,Acu-Link.com,2013-10-27 17:06:00,
2013-10-27 13:21:00,64.4,42.6,29.89,NNW,337,1.1,-999.0,45,-99.99,,,0.00,Acu-Link.com,2013-10-27 17:21:00,
2013-10-27 13:36:00,64.4,43.2,29.88,South,180,3.6,-999.0,46,-99.99,,,0.00,Acu-Link.com,2013-10-27 17:36:00,
2013-10-27 13:51:00,64.4,43.2,29.87,SSE,157,2.7,-999.0,46,-99.99,,,0.00,Acu-Link.com,2013-10-27 17:51:00,
2013-10-27 14:06:00,64.4,42.6,29.86,SSE,157,3.1,-999.0,45,-99.99,,,0.00,Acu-Link.com,2013-10-27 18:06:00,
2013-10-27 14:22:00,68.0,45.9,29.85,NE,45,2.7,-999.0,45,-99.99,,,0.00,Acu-Link.com,2013-10-27 18:22:00,
2013-10-27 14:37:00,68.0,45.3,29.84,SSE,157,4.0,-999.0,44,-99.99,,,0.00,Acu-Link.com,2013-10-27 18:37:00,
2013-10-27 14:52:00,68.0,47.0,29.84,South,180,3.1,-999.0,47,-99.99,,,0.00,Acu-Link.com,2013-10-27 18:52:00,
2013-10-27 15:07:00,68.0,46.4,29.84,SE,135,5.6,-999.0,46,-99.99,,,0.00,Acu-Link.com,2013-10-27 19:07:00,
2013-10-27 15:23:00,68.0,45.3,29.83,NNE,22,1.6,-999.0,44,-99.99,,,0.00,Acu-Link.com,2013-10-27 19:23:00,
2013-10-27 15:38:00,68.0,45.9,29.83,SW,225,3.1,-999.0,45,-99.99,,,0.00,Acu-Link.com,2013-10-27 19:38:00,
2013-10-27 15:53:00,66.2,45.4,29.83,South,180,5.1,-999.0,47,-99.99,,,0.00,Acu-Link.com,2013-10-27 19:53:00,
2013-10-27 16:08:00,68.0,47.0,29.83,SSE,157,2.7,-999.0,47,-99.99,,,0.00,Acu-Link.com,2013-10-27 20:08:00,
2013-10-27 16:23:00,68.0,46.4,29.83,North,0,2.7,-999.0,46,-99.99,,,0.00,Acu-Link.com,2013-10-27 20:23:00,
2013-10-27 16:39:00,66.2,46.5,29.83,South,180,2.7,-999.0,49,-99.99,,,0.00,Acu-Link.com,2013-10-27 20:39:00,
2013-10-27 16:54:00,66.2,47.5,29.83,SSW,202,1.1,-999.0,51,-99.99,,,0.00,Acu-Link.com,2013-10-27 20:54:00,
2013-10-27 17:09:00,64.4,45.4,29.83,South,180,0.0,-999.0,50,-99.99,,,0.00,Acu-Link.com,2013-10-27 21:09:00,
2013-10-27 17:24:00,64.4,45.9,29.82,NE,45,3.1,-999.0,51,-99.99,,,0.00,Acu-Link.com,2013-10-27 21:24:00,
2013-10-27 17:39:00,64.4,47.4,29.82,ESE,112,1.6,-999.0,54,-99.99,,,0.00,Acu-Link.com,2013-10-27 21:39:00,
2013-10-27 17:55:00,62.6,46.7,29.82,NE,45,0.0,-999.0,56,-99.99,,,0.00,Acu-Link.com,2013-10-27 21:55:00,
2013-10-27 18:10:00,62.6,47.2,29.83,NE,45,1.1,-999.0,57,-99.99,,,0.00,Acu-Link.com,2013-10-27 22:10:00,
2013-10-27 18:25:00,60.8,47.7,29.84,West,270,1.1,-999.0,62,-99.99,,,0.00,Acu-Link.com,2013-10-27 22:25:00,
2013-10-27 18:40:00,60.8,47.7,29.83,NW,315,1.6,-999.0,62,-99.99,,,0.00,Acu-Link.com,2013-10-27 22:40:00,
2013-10-27 18:55:00,59.0,46.4,29.83,North,0,0.0,-999.0,63,-99.99,,,0.00,Acu-Link.com,2013-10-27 22:55:00,
2013-10-27 19:10:00,59.0,47.7,29.84,NE,45,1.6,-999.0,66,-99.99,,,0.00,Acu-Link.com,2013-10-27 23:10:00,
2013-10-27 19:26:00,59.0,48.1,29.85,NNE,22,1.1,-999.0,67,-99.99,,,0.00,Acu-Link.com,2013-10-27 23:26:00,
2013-10-27 19:41:00,57.2,47.9,29.85,NNE,22,1.6,-999.0,71,-99.99,,,0.00,Acu-Link.com,2013-10-27 23:41:00,
2013-10-27 19:56:00,55.4,46.5,29.85,East,90,0.0,-999.0,72,-99.99,,,0.00,Acu-Link.com,2013-10-27 23:56:00,
2013-10-27 20:11:00,55.4,47.6,29.86,North,0,0.0,-999.0,75,-99.99,,,0.00,Acu-Link.com,2013-10-28 00:11:00,
2013-10-27 20:26:00,55.4,48.0,29.86,NNE,22,0.0,-999.0,76,-99.99,,,0.00,Acu-Link.com,2013-10-28 00:26:00,
2013-10-27 20:42:00,53.6,46.2,29.86,NNE,22,0.0,-999.0,76,-99.99,,,0.00,Acu-Link.com,2013-10-28 00:42:00,
2013-10-27 20:57:00,53.6,47.2,29.86,NNE,22,0.0,-999.0,79,-99.99,,,0.00,Acu-Link.com,2013-10-28 00:57:00,
2013-10-27 21:12:00,53.6,47.6,29.86,NNE,22,0.0,-999.0,80,-99.99,,,0.00,Acu-Link.com,2013-10-28 01:12:00,
2013-10-27 21:27:00,51.8,46.5,29.86,NNE,22,0.0,-999.0,82,-99.99,,,0.00,Acu-Link.com,2013-10-28 01:27:00,
2013-10-27 21:43:00,51.8,46.8,29.86,NNE,22,0.0,-999.0,83,-99.99,,,0.00,Acu-Link.com,2013-10-28 01:43:00,
2013-10-27 21:58:00,51.8,47.4,29.87,ENE,67,0.0,-999.0,85,-99.99,,,0.00,Acu-Link.com,2013-10-28 01:58:00,
2013-10-27 22:13:00,50.0,46.0,29.88,NNE,22,0.0,-999.0,86,-99.99,,,0.00,Acu-Link.com,2013-10-28 02:13:00,
2013-10-27 22:28:00,50.0,46.3,29.88,NNE,22,0.0,-999.0,87,-99.99,,,0.00,Acu-Link.com,2013-10-28 02:28:00,
2013-10-27 22:43:00,50.0,46.6,29.88,NNE,22,0.0,-999.0,88,-99.99,,,0.00,Acu-Link.com,2013-10-28 02:43:00,
2013-10-27 22:58:00,50.0,46.9,29.89,NNW,337,0.0,-999.0,89,-99.99,,,0.00,Acu-Link.com,2013-10-28 02:58:00,
2013-10-27 23:14:00,50.0,47.8,29.88,NNE,22,0.0,-999.0,92,-99.99,,,0.00,Acu-Link.com,2013-10-28 03:14:00,
2013-10-27 23:29:00,50.0,47.8,29.89,NNE,22,0.0,-999.0,92,-99.99,,,0.00,Acu-Link.com,2013-10-28 03:29:00,
2013-10-27 23:44:00,50.0,47.8,29.89,SSE,157,0.0,-999.0,92,-99.99,,,0.00,Acu-Link.com,2013-10-28 03:44:00,
2013-10-27 23:59:00,50.0,48.1,29.89,East,90,0.0,-999.0,93,-99.99,,,0.00,Acu-Link.com,2013-10-28 03:59:00,